Time;durP1;ratioP1;P1;durP2;ratioP2;P2;SDS_P1;SDS_P2;PMS_P1;PMS_P2;Temp;Humidity;BMP_temperature;BMP_pressure;BME280_temperature;BME280_humidity;BME280_pressure;Samples;Min_cycle;Max_cycle;Signal;HPM_P1;HPM_P2
2023/02/08 00:03:00;;;;;;;;;;;-1.30;99.90;;;;;;6233582;28;19925;-79
2023/02/08 00:06:01;;;;;;;;;;;-1.30;99.90;;;;;;6225570;28;19921;-79
2023/02/08 00:09:03;;;;;;;;;;;-1.30;99.90;;;;;;6225949;28;19921;-79
2023/02/08 00:12:04;;;;;;;;;;;-1.30;99.90;;;;;;6226200;28;19928;-79
2023/02/08 00:15:08;;;;;;;;;;;-1.20;99.90;;;;;;6225037;28;20382;-79
2023/02/08 00:18:10;;;;;;;;;;;-1.20;99.90;;;;;;6225865;28;19928;-79
2023/02/08 00:21:13;;;;;;;;;;;-1.20;99.90;;;;;;6225530;28;19921;-79
2023/02/08 00:24:14;;;;;;;;;;;-1.20;99.90;;;;;;6227122;28;19921;-79
2023/02/08 00:27:16;;;;;;;;;;;-1.20;99.90;;;;;;6226374;28;19921;-79
2023/02/08 00:30:19;;;;;;;;;;;-1.20;99.90;;;;;;6225970;28;19928;-79
2023/02/08 00:33:20;;;;;;;;;;;-1.30;99.90;;;;;;6224647;28;19928;-80
2023/02/08 00:36:22;;;;;;;;;;;-1.30;99.90;;;;;;6227024;28;19933;-80
2023/02/08 00:39:23;;;;;;;;;;;-1.30;99.90;;;;;;6226853;28;19921;-79
2023/02/08 00:42:25;;;;;;;;;;;-1.40;99.90;;;;;;6225259;28;20301;-79
2023/02/08 00:45:28;;;;;;;;;;;-1.30;99.90;;;;;;6224984;28;20301;-79
2023/02/08 00:48:30;;;;;;;;;;;-1.30;99.90;;;;;;6222793;28;20403;-79
2023/02/08 00:51:32;;;;;;;;;;;-1.30;99.90;;;;;;6223059;28;20457;-78
2023/02/08 00:54:33;;;;;;;;;;;-1.40;99.90;;;;;;6223706;28;19921;-78
2023/02/08 00:57:35;;;;;;;;;;;-1.40;99.90;;;;;;6223929;28;19928;-79
2023/02/08 01:00:38;;;;;;;;;;;-1.40;99.90;;;;;;6223573;28;20404;-79
2023/02/08 01:03:40;;;;;;;;;;;-1.50;99.90;;;;;;6224195;28;19929;-79
2023/02/08 01:06:42;;;;;;;;;;;-1.50;99.90;;;;;;6244249;23;19922;-80
2023/02/08 01:09:43;;;;;;;;;;;-1.50;99.90;;;;;;6204901;28;19922;-80
2023/02/08 01:12:45;;;;;;;;;;;-1.50;99.90;;;;;;6204616;28;19922;-79
2023/02/08 01:15:48;;;;;;;;;;;-1.60;99.90;;;;;;6205649;28;19926;-78
2023/02/08 01:18:51;;;;;;;;;;;-1.60;99.90;;;;;;6229095;28;19921;-80
2023/02/08 01:21:52;;;;;;;;;;;-1.60;99.90;;;;;;6230233;28;19921;-80
2023/02/08 01:24:54;;;;;;;;;;;-1.70;99.90;;;;;;6225281;28;20372;-79
2023/02/08 01:27:56;;;;;;;;;;;-1.70;99.90;;;;;;6229220;28;19921;-80
2023/02/08 01:30:59;;;;;;;;;;;-1.70;99.90;;;;;;6229446;28;20498;-80
2023/02/08 01:34:01;;;;;;;;;;;-1.70;99.90;;;;;;6228733;28;19928;-80
2023/02/08 01:37:02;;;;;;;;;;;-1.70;99.90;;;;;;6228756;28;19928;-80
2023/02/08 01:40:04;;;;;;;;;;;-1.70;99.90;;;;;;6229635;28;19921;-80
2023/02/08 01:43:09;;;;;;;;;;;-1.70;99.90;;;;;;6228340;28;19929;-80
2023/02/08 01:46:12;;;;;;;;;;;-1.70;99.90;;;;;;6228996;28;19944;-80
2023/02/08 01:49:16;;;;;;;;;;;-1.60;99.90;;;;;;6229696;28;20312;-80
2023/02/08 01:52:19;;;;;;;;;;;-1.70;99.90;;;;;;6229604;28;19921;-80
2023/02/08 01:55:25;;;;;;;;;;;-1.60;99.90;;;;;;6229722;28;19928;-79
2023/02/08 01:58:28;;;;;;;;;;;-1.60;99.90;;;;;;6229189;28;19930;-80
2023/02/08 02:01:31;;;;;;;;;;;-1.60;99.90;;;;;;6228577;28;19921;-78
2023/02/08 02:04:32;;;;;;;;;;;-1.60;99.90;;;;;;6228862;28;19929;-79
2023/02/08 02:07:34;;;;;;;;;;;-1.60;99.90;;;;;;6228865;28;19929;-79
2023/02/08 02:10:36;;;;;;;;;;;-1.60;99.90;;;;;;6228376;28;19921;-79
2023/02/08 02:13:38;;;;;;;;;;;-1.60;99.90;;;;;;6229345;28;19921;-80
2023/02/08 02:16:41;;;;;;;;;;;-1.60;99.90;;;;;;6228332;28;19935;-80
2023/02/08 02:19:47;;;;;;;;;;;-1.60;99.90;;;;;;6230093;28;19921;-80
2023/02/08 02:22:59;;;;;;;;;;;-1.60;99.90;;;;;;6229123;28;19928;-80
2023/02/08 02:26:29;;;;;;;;;;;-1.60;99.90;;;;;;6228503;28;19928;-80
2023/02/08 02:29:52;;;;;;;;;;;-1.60;99.90;;;;;;6229120;28;19944;-79
2023/02/08 02:33:04;;;;;;;;;;;-1.60;99.90;;;;;;6229479;28;19929;-79
2023/02/08 02:36:08;;;;;;;;;;;-1.60;99.90;;;;;;6228880;28;19921;-80
2023/02/08 02:39:16;;;;;;;;;;;-1.60;99.90;;;;;;6227935;28;20370;-80
2023/02/08 02:45:46;;;;;;;;;;;-1.60;99.90;;;;;;6229991;28;19918;-80
2023/02/08 02:48:54;;;;;;;;;;;-1.60;99.90;;;;;;6225279;28;20591;-79
2023/02/08 02:51:58;;;;;;;;;;;-1.60;99.90;;;;;;6244816;28;19928;-79
2023/02/08 02:55:05;;;;;;;;;;;-1.60;99.90;;;;;;6233248;28;19921;-79
2023/02/08 02:58:07;;;;;;;;;;;-1.60;99.90;;;;;;6234686;28;19925;-80
2023/02/08 03:01:12;;;;;;;;;;;-1.70;99.90;;;;;;6234792;28;19925;-80
2023/02/08 03:04:19;;;;;;;;;;;-1.70;99.90;;;;;;6234555;28;19936;-79
2023/02/08 03:07:27;;;;;;;;;;;-1.70;99.90;;;;;;6235001;28;19921;-80
2023/02/08 03:10:59;;;;;;;;;;;-1.80;99.90;;;;;;6235845;28;19921;-80
2023/02/08 03:14:24;;;;;;;;;;;-1.80;99.90;;;;;;6236409;28;20005;-80
2023/02/08 03:18:01;;;;;;;;;;;-1.80;99.90;;;;;;6254526;28;20406;-80
2023/02/08 03:21:10;;;;;;;;;;;-1.80;99.90;;;;;;6197029;28;19922;-79
2023/02/08 03:24:27;;;;;;;;;;;-1.80;99.90;;;;;;6212707;28;19922;-79
2023/02/08 03:27:35;;;;;;;;;;;-1.90;99.90;;;;;;6212844;28;19922;-79
2023/02/08 03:30:43;;;;;;;;;;;-1.90;99.90;;;;;;6211867;28;19925;-80
2023/02/08 03:33:56;;;;;;;;;;;-1.80;99.90;;;;;;6213322;28;19925;-80
2023/02/08 03:37:05;;;;;;;;;;;-1.90;99.90;;;;;;6228647;28;19988;-81
2023/02/08 03:40:14;;;;;;;;;;;-1.90;99.90;;;;;;6221945;28;19925;-81
2023/02/08 03:43:25;;;;;;;;;;;-1.90;99.90;;;;;;6211398;28;19989;-81
2023/02/08 03:46:40;;;;;;;;;;;-1.90;99.90;;;;;;6211971;28;19926;-82
2023/02/08 03:49:44;;;;;;;;;;;-1.90;99.90;;;;;;6211870;28;19922;-81
2023/02/08 03:52:54;;;;;;;;;;;-1.90;99.90;;;;;;6210497;28;19929;-81
2023/02/08 03:55:59;;;;;;;;;;;-1.90;99.90;;;;;;6210904;28;19945;-81
2023/02/08 03:59:07;;;;;;;;;;;-2.00;99.90;;;;;;6210450;28;19957;-81
2023/02/08 04:02:13;;;;;;;;;;;-2.00;99.90;;;;;;6211614;28;20285;-82
2023/02/08 04:05:23;;;;;;;;;;;-2.00;99.90;;;;;;6211823;28;19950;-81
2023/02/08 04:11:56;;;;;;;;;;;-2.00;99.90;;;;;;6210007;28;19965;-82
2023/02/08 04:15:22;;;;;;;;;;;;;;;;;;;;;
2023/02/08 04:18:23;;;;;;;;;;;-2.00;99.90;;;;;;6211488;28;19921;-81
2023/02/08 04:21:28;;;;;;;;;;;-2.10;99.90;;;;;;6212269;28;19921;-81
2023/02/08 04:24:31;;;;;;;;;;;-2.10;99.90;;;;;;6212142;28;19926;-81
2023/02/08 04:27:33;;;;;;;;;;;-2.10;99.90;;;;;;6212079;28;19957;-81
2023/02/08 04:30:36;;;;;;;;;;;-2.10;99.90;;;;;;6212265;28;19977;-80
2023/02/08 04:33:38;;;;;;;;;;;-2.10;99.90;;;;;;6212472;28;19926;-80
2023/02/08 04:36:43;;;;;;;;;;;-2.10;99.90;;;;;;6211161;28;19984;-81
2023/02/08 04:39:46;;;;;;;;;;;-2.10;99.90;;;;;;6214617;28;19922;-82
2023/02/08 04:42:48;;;;;;;;;;;-2.10;99.90;;;;;;6214694;28;19922;-81
2023/02/08 04:45:51;;;;;;;;;;;-2.00;99.90;;;;;;6222221;28;19984;-81
2023/02/08 04:48:56;;;;;;;;;;;-2.20;99.90;;;;;;6238723;28;20459;-82
2023/02/08 04:51:57;;;;;;;;;;;-2.20;99.90;;;;;;6236810;28;20012;-80
2023/02/08 04:55:03;;;;;;;;;;;-2.20;99.90;;;;;;6236900;28;19921;-80
2023/02/08 04:58:05;;;;;;;;;;;-2.20;99.90;;;;;;6238276;28;19925;-81
2023/02/08 05:01:06;;;;;;;;;;;-2.20;99.90;;;;;;6236952;28;19975;-82
2023/02/08 05:04:10;;;;;;;;;;;-2.30;99.90;;;;;;6238597;28;19921;-81
2023/02/08 05:07:12;;;;;;;;;;;-2.10;99.90;;;;;;6237653;28;19927;-82
2023/02/08 05:10:15;;;;;;;;;;;-2.00;99.90;;;;;;6238919;28;19967;-81
2023/02/08 05:13:20;;;;;;;;;;;-2.30;99.90;;;;;;6239854;28;19984;-82
2023/02/08 05:16:22;;;;;;;;;;;-2.30;99.90;;;;;;6238083;28;19976;-81
2023/02/08 05:19:24;;;;;;;;;;;-2.40;99.90;;;;;;6238415;28;19922;-82
2023/02/08 05:22:28;;;;;;;;;;;-2.50;99.90;;;;;;6237199;28;19921;-81
2023/02/08 05:25:31;;;;;;;;;;;-2.40;99.90;;;;;;6239025;28;19956;-80
2023/02/08 05:28:36;;;;;;;;;;;-2.40;99.90;;;;;;6234972;28;19994;-81
2023/02/08 05:31:38;;;;;;;;;;;-2.40;99.90;;;;;;6235923;28;19921;-81
2023/02/08 05:34:40;;;;;;;;;;;-2.40;99.90;;;;;;6235482;28;20003;-82
2023/02/08 05:37:44;;;;;;;;;;;-2.40;99.90;;;;;;6234123;28;19984;-81
2023/02/08 05:40:47;;;;;;;;;;;-2.40;99.90;;;;;;6236512;28;19992;-82
2023/02/08 05:43:51;;;;;;;;;;;-2.40;99.90;;;;;;6236877;28;20019;-82
2023/02/08 05:46:53;;;;;;;;;;;-2.40;99.90;;;;;;6237080;28;19921;-82
2023/02/08 05:49:54;;;;;;;;;;;-2.40;99.90;;;;;;6237943;28;19928;-82
2023/02/08 05:52:56;;;;;;;;;;;-2.40;99.90;;;;;;6237606;28;20369;-81
2023/02/08 05:55:59;;;;;;;;;;;-2.40;99.90;;;;;;6237053;28;19925;-82
2023/02/08 05:59:01;;;;;;;;;;;-2.40;99.90;;;;;;6236989;28;19921;-82
2023/02/08 06:02:02;;;;;;;;;;;-2.40;99.90;;;;;;6236650;28;19921;-82
2023/02/08 06:05:04;;;;;;;;;;;-2.40;99.90;;;;;;6235529;28;19928;-82
2023/02/08 06:08:05;;;;;;;;;;;-2.40;99.90;;;;;;6237334;28;19921;-82
2023/02/08 06:11:08;;;;;;;;;;;-2.40;99.90;;;;;;6237637;28;19931;-82
2023/02/08 06:14:10;;;;;;;;;;;-2.40;99.90;;;;;;6237551;28;19922;-82
2023/02/08 06:17:11;;;;;;;;;;;-2.40;99.90;;;;;;6237988;28;20300;-83
2023/02/08 06:20:13;;;;;;;;;;;-2.40;99.90;;;;;;6240456;28;19921;-83
2023/02/08 06:23:14;;;;;;;;;;;-2.40;99.90;;;;;;6244122;28;19921;-83
2023/02/08 06:26:17;;;;;;;;;;;-2.40;99.90;;;;;;6244150;28;20299;-81
2023/02/08 06:29:19;;;;;;;;;;;-2.40;99.90;;;;;;6244287;28;19932;-82
2023/02/08 06:32:20;;;;;;;;;;;-2.40;99.90;;;;;;6243041;28;19921;-82
2023/02/08 06:35:22;;;;;;;;;;;-2.40;99.90;;;;;;6243978;28;19922;-82
2023/02/08 06:38:24;;;;;;;;;;;-2.40;99.90;;;;;;6243460;28;19921;-82
2023/02/08 06:41:27;;;;;;;;;;;-2.40;99.90;;;;;;6243488;28;19921;-80
2023/02/08 06:44:28;;;;;;;;;;;-2.30;99.90;;;;;;6243345;28;19925;-82
2023/02/08 06:47:54;;;;;;;;;;;-2.30;99.90;;;;;;6243316;28;19932;-83
2023/02/08 06:50:57;;;;;;;;;;;-2.30;99.90;;;;;;6242437;28;20559;-82
2023/02/08 06:54:00;;;;;;;;;;;-2.30;99.90;;;;;;6233663;28;19951;-82
2023/02/08 06:57:04;;;;;;;;;;;-2.30;99.90;;;;;;6238190;28;20016;-82
2023/02/08 07:00:06;;;;;;;;;;;-2.40;99.90;;;;;;6253186;28;19922;-81
2023/02/08 07:03:11;;;;;;;;;;;-2.30;99.90;;;;;;6249257;28;19982;-80
2023/02/08 07:06:16;;;;;;;;;;;-2.10;99.90;;;;;;6247008;28;19921;-82
2023/02/08 07:09:18;;;;;;;;;;;-2.30;99.90;;;;;;6220706;23;1100730;-81
2023/02/08 07:12:20;;;;;;;;;;;-2.30;99.90;;;;;;6234083;28;20304;-80
2023/02/08 07:15:22;;;;;;;;;;;-2.30;99.90;;;;;;6233063;28;19921;-80
2023/02/08 07:18:24;;;;;;;;;;;-2.20;99.90;;;;;;6231514;28;19932;-80
2023/02/08 07:21:26;;;;;;;;;;;-2.20;99.90;;;;;;6231770;28;19921;-79
2023/02/08 07:24:27;;;;;;;;;;;-2.10;99.90;;;;;;6222158;28;20385;-82
2023/02/08 07:27:30;;;;;;;;;;;-2.00;99.90;;;;;;6232367;28;19921;-81
2023/02/08 07:30:32;;;;;;;;;;;-1.90;99.90;;;;;;6225580;28;19925;-79
2023/02/08 07:33:33;;;;;;;;;;;-1.90;99.90;;;;;;6229433;28;19922;-81
2023/02/08 07:36:35;;;;;;;;;;;-1.80;99.90;;;;;;6231714;28;19922;-80
2023/02/08 07:39:37;;;;;;;;;;;-1.70;99.90;;;;;;6230783;28;19944;-81
2023/02/08 07:42:40;;;;;;;;;;;-1.70;99.90;;;;;;6231461;28;19945;-80
2023/02/08 07:45:41;;;;;;;;;;;-1.60;99.90;;;;;;6231282;28;19921;-81
2023/02/08 07:48:43;;;;;;;;;;;-1.60;99.90;;;;;;6231763;28;20378;-80
2023/02/08 07:51:44;;;;;;;;;;;-1.50;99.90;;;;;;6232644;28;19925;-82
2023/02/08 07:54:46;;;;;;;;;;;-1.40;99.90;;;;;;6232472;28;19921;-81
2023/02/08 07:57:49;;;;;;;;;;;-1.30;99.90;;;;;;6229572;28;19921;-81
2023/02/08 08:00:51;;;;;;;;;;;-1.20;99.90;;;;;;6231406;28;19922;-79
2023/02/08 08:03:52;;;;;;;;;;;-1.10;99.90;;;;;;6232546;28;19928;-81
2023/02/08 08:06:54;;;;;;;;;;;-1.00;99.90;;;;;;6237945;28;19921;-79
2023/02/08 08:09:56;;;;;;;;;;;-0.90;99.90;;;;;;6235548;28;19909;-79
2023/02/08 08:12:58;;;;;;;;;;;-0.80;99.90;;;;;;6232865;28;19928;-79
2023/02/08 08:16:00;;;;;;;;;;;-0.70;99.90;;;;;;6232911;28;19922;-79
2023/02/08 08:19:01;;;;;;;;;;;-0.60;99.90;;;;;;6233343;28;19921;-78
2023/02/08 08:22:03;;;;;;;;;;;-0.50;99.90;;;;;;6233695;28;20001;-80
2023/02/08 08:25:05;;;;;;;;;;;-0.20;99.90;;;;;;6233437;28;19936;-80
2023/02/08 08:28:08;;;;;;;;;;;-0.10;99.90;;;;;;6234450;28;19930;-80
2023/02/08 08:31:10;;;;;;;;;;;0.10;99.90;;;;;;6233811;28;19928;-80
2023/02/08 08:34:11;;;;;;;;;;;0.30;99.90;;;;;;6236249;28;19905;-80
2023/02/08 08:37:13;;;;;;;;;;;0.50;99.90;;;;;;6243836;28;19928;-80
2023/02/08 08:40:15;;;;;;;;;;;0.60;99.90;;;;;;6231673;28;19925;-77
2023/02/08 08:43:18;;;;;;;;;;;0.80;99.90;;;;;;6232474;28;19929;-79
2023/02/08 08:46:19;;;;;;;;;;;1.00;99.90;;;;;;6232757;28;20376;-78
2023/02/08 08:49:21;;;;;;;;;;;1.20;99.90;;;;;;6232789;28;20461;-77
2023/02/08 08:52:22;;;;;;;;;;;1.30;99.90;;;;;;6233254;28;19922;-78
2023/02/08 08:55:24;;;;;;;;;;;1.60;99.90;;;;;;6233070;28;19928;-78
2023/02/08 08:58:27;;;;;;;;;;;1.80;99.90;;;;;;6233027;28;20007;-77
2023/02/08 09:01:29;;;;;;;;;;;1.90;99.90;;;;;;6237341;28;19928;-80
2023/02/08 09:04:30;;;;;;;;;;;2.10;99.90;;;;;;6234639;28;19921;-81
2023/02/08 09:07:33;;;;;;;;;;;2.20;99.90;;;;;;6232576;28;19929;-77
2023/02/08 09:10:34;;;;;;;;;;;2.30;99.90;;;;;;6228764;28;19925;-78
2023/02/08 09:13:37;;;;;;;;;;;2.40;99.90;;;;;;6229997;28;19926;-80
2023/02/08 09:16:40;;;;;;;;;;;2.50;99.90;;;;;;6237582;28;19928;-77
2023/02/08 09:19:41;;;;;;;;;;;2.60;99.90;;;;;;6232752;28;19921;-77
2023/02/08 09:22:43;;;;;;;;;;;2.60;99.90;;;;;;6231928;28;19976;-77
2023/02/08 09:25:45;;;;;;;;;;;2.60;99.90;;;;;;6232653;28;19948;-78
2023/02/08 09:28:47;;;;;;;;;;;2.80;99.90;;;;;;6229279;28;19921;-79
2023/02/08 09:31:49;;;;;;;;;;;2.90;99.90;;;;;;6233132;28;20455;-80
2023/02/08 09:34:51;;;;;;;;;;;3.00;99.90;;;;;;6238373;28;20017;-80
2023/02/08 09:37:54;;;;;;;;;;;3.30;99.90;;;;;;6229792;28;20365;-78
2023/02/08 09:41:01;;;;;;;;;;;3.50;99.90;;;;;;6220291;28;20004;-76
2023/02/08 09:44:15;;;;;;;;;;;3.60;99.90;;;;;;6224865;28;19921;-77
2023/02/08 09:47:19;;;;;;;;;;;3.90;99.90;;;;;;6238513;28;19921;-77
2023/02/08 09:50:33;;;;;;;;;;;4.10;99.90;;;;;;6224238;28;19921;-78
2023/02/08 09:53:35;;;;;;;;;;;4.10;99.90;;;;;;6226561;28;20319;-78
2023/02/08 09:56:39;;;;;;;;;;;4.30;99.90;;;;;;6231632;28;19948;-81
2023/02/08 09:59:48;;;;;;;;;;;4.40;99.90;;;;;;6238682;28;19922;-80
2023/02/08 10:02:53;;;;;;;;;;;4.50;99.90;;;;;;6239896;28;20373;-78
2023/02/08 10:05:55;;;;;;;;;;;4.70;99.90;;;;;;6227994;28;19925;-78
2023/02/08 10:08:59;;;;;;;;;;;5.00;99.90;;;;;;6229041;28;19929;-78
2023/02/08 10:12:05;;;;;;;;;;;5.20;99.90;;;;;;6230391;28;20060;-77
2023/02/08 10:15:13;;;;;;;;;;;5.40;99.90;;;;;;6231214;28;20328;-78
2023/02/08 10:18:23;;;;;;;;;;;5.40;99.90;;;;;;6228856;28;19925;-78
2023/02/08 10:21:33;;;;;;;;;;;5.60;99.90;;;;;;6228695;28;20239;-77
2023/02/08 10:24:46;;;;;;;;;;;5.90;99.90;;;;;;6233116;28;19925;-79
2023/02/08 10:27:54;;;;;;;;;;;5.80;99.90;;;;;;6208824;28;19957;-79
2023/02/08 10:31:00;;;;;;;;;;;5.70;99.90;;;;;;6206509;28;19932;-79
2023/02/08 10:34:03;;;;;;;;;;;5.70;99.90;;;;;;6207936;28;19928;-78
2023/02/08 10:37:10;;;;;;;;;;;5.80;99.90;;;;;;6210908;28;20309;-78
2023/02/08 10:40:29;;;;;;;;;;;6.00;99.90;;;;;;6214560;28;19921;-79
2023/02/08 10:43:35;;;;;;;;;;;6.00;99.90;;;;;;6207631;28;19922;-77
2023/02/08 10:46:43;;;;;;;;;;;6.10;99.90;;;;;;6203174;28;19928;-79
2023/02/08 10:49:49;;;;;;;;;;;6.10;99.90;;;;;;6205696;28;19921;-79
2023/02/08 10:52:50;;;;;;;;;;;6.20;99.90;;;;;;6206282;28;19968;-78
2023/02/08 10:55:52;;;;;;;;;;;6.30;99.90;;;;;;6205302;28;19928;-81
2023/02/08 10:58:55;;;;;;;;;;;6.30;99.90;;;;;;6214416;28;20396;-80
2023/02/08 11:01:59;;;;;;;;;;;6.50;99.90;;;;;;6211728;28;19922;-80
2023/02/08 11:05:02;;;;;;;;;;;6.50;99.90;;;;;;6210111;28;20399;-79
2023/02/08 11:08:07;;;;;;;;;;;6.50;99.90;;;;;;6228786;28;19921;-80
2023/02/08 11:11:09;;;;;;;;;;;6.40;99.90;;;;;;6236334;28;20328;-80
2023/02/08 11:14:14;;;;;;;;;;;6.30;99.90;;;;;;6236139;28;19932;-81
2023/02/08 11:17:24;;;;;;;;;;;6.30;99.90;;;;;;6233752;28;20554;-80
2023/02/08 11:20:30;;;;;;;;;;;6.50;99.90;;;;;;6232989;28;19921;-80
2023/02/08 11:23:33;;;;;;;;;;;6.90;99.90;;;;;;6236807;28;20411;-81
2023/02/08 11:26:36;;;;;;;;;;;7.20;99.90;;;;;;6249179;28;19921;-80
2023/02/08 11:29:37;;;;;;;;;;;7.40;99.90;;;;;;6257858;28;19921;-80
2023/02/08 11:32:52;;;;;;;;;;;7.50;99.90;;;;;;6255343;28;19973;-79
2023/02/08 11:35:55;;;;;;;;;;;7.70;99.90;;;;;;6254527;28;19924;-79
2023/02/08 11:38:57;;;;;;;;;;;7.40;99.90;;;;;;6252878;28;20403;-78
2023/02/08 11:42:00;;;;;;;;;;;7.50;99.90;;;;;;6252441;28;20410;-80
2023/02/08 11:45:02;;;;;;;;;;;7.60;99.90;;;;;;6257556;28;19943;-79
2023/02/08 11:48:14;;;;;;;;;;;7.80;99.90;;;;;;6242553;28;19922;-79
2023/02/08 11:51:25;;;;;;;;;;;7.70;99.90;;;;;;6234375;28;19921;-80
2023/02/08 11:54:47;;;;;;;;;;;7.80;99.90;;;;;;6231851;28;20023;-80
2023/02/08 11:57:53;;;;;;;;;;;7.90;99.90;;;;;;6222607;28;19928;-81
2023/02/08 12:00:59;;;;;;;;;;;7.80;99.90;;;;;;6230152;28;19927;-80
2023/02/08 12:04:04;;;;;;;;;;;7.70;99.90;;;;;;6233967;28;19921;-80
2023/02/08 12:07:23;;;;;;;;;;;7.80;99.90;;;;;;6233571;28;19921;-81
2023/02/08 12:10:36;;;;;;;;;;;7.70;99.90;;;;;;6230124;28;19922;-79
2023/02/08 12:13:55;;;;;;;;;;;7.80;99.90;;;;;;6228491;28;19928;-78
2023/02/08 12:17:08;;;;;;;;;;;7.80;99.90;;;;;;6228172;28;19921;-81
2023/02/08 12:20:31;;;;;;;;;;;8.10;99.90;;;;;;6235651;28;19929;-80
2023/02/08 12:23:44;;;;;;;;;;;8.20;99.90;;;;;;6230143;28;19921;-79
2023/02/08 12:26:52;;;;;;;;;;;8.40;99.90;;;;;;6243691;28;20026;-79
2023/02/08 12:29:56;;;;;;;;;;;8.30;99.90;;;;;;6254886;28;19928;-80
2023/02/08 12:33:15;;;;;;;;;;;8.20;99.90;;;;;;6256434;28;19972;-80
2023/02/08 12:36:24;;;;;;;;;;;8.50;99.90;;;;;;6257153;28;19925;-80
2023/02/08 12:43:02;;;;;;;;;;;8.60;99.90;;;;;;6254694;28;20406;-79
2023/02/08 12:46:09;;;;;;;;;;;8.50;99.90;;;;;;6256770;28;20423;-81
2023/02/08 12:49:27;;;;;;;;;;;8.40;99.90;;;;;;6253019;28;19932;-79
2023/02/08 12:52:33;;;;;;;;;;;8.40;99.90;;;;;;6252816;28;19921;-80
2023/02/08 12:55:45;;;;;;;;;;;8.40;99.90;;;;;;6258413;28;19928;-79
2023/02/08 12:58:57;;;;;;;;;;;8.30;99.70;;;;;;6257870;28;19944;-79
2023/02/08 13:02:02;;;;;;;;;;;8.40;99.50;;;;;;6238262;28;19930;-79
2023/02/08 13:05:07;;;;;;;;;;;8.60;99.90;;;;;;6237537;28;19929;-80
2023/02/08 13:08:16;;;;;;;;;;;8.70;99.90;;;;;;6234848;28;19935;-79
2023/02/08 13:11:28;;;;;;;;;;;9.00;99.90;;;;;;6235512;28;19948;-79
2023/02/08 13:14:32;;;;;;;;;;;9.30;99.90;;;;;;6231843;28;20330;-79
2023/02/08 13:17:39;;;;;;;;;;;9.40;98.10;;;;;;6231743;28;19921;-80
2023/02/08 13:20:43;;;;;;;;;;;9.40;97.90;;;;;;6230679;28;19921;-78
2023/02/08 13:23:46;;;;;;;;;;;9.50;98.30;;;;;;6233407;28;19921;-79
2023/02/08 13:26:49;;;;;;;;;;;9.70;98.30;;;;;;6238763;28;19922;-79
2023/02/08 13:29:51;;;;;;;;;;;9.70;94.90;;;;;;6235308;28;19921;-79
2023/02/08 13:32:54;;;;;;;;;;;9.80;94.40;;;;;;6227763;28;19922;-79
2023/02/08 13:35:55;;;;;;;;;;;9.90;95.90;;;;;;6229265;28;19925;-80
2023/02/08 13:38:57;;;;;;;;;;;9.80;95.10;;;;;;6231240;28;19925;-80
2023/02/08 13:42:01;;;;;;;;;;;9.80;95.50;;;;;;6232834;28;19922;-80
2023/02/08 13:45:04;;;;;;;;;;;9.80;94.60;;;;;;6230419;28;19921;-78
2023/02/08 13:48:07;;;;;;;;;;;9.80;93.30;;;;;;6234117;28;19932;-80
2023/02/08 13:51:35;;;;;;;;;;;9.80;93.60;;;;;;6232210;28;20381;-79
2023/02/08 13:54:36;;;;;;;;;;;10.20;94.00;;;;;;6229801;28;20293;-80
2023/02/08 13:57:53;;;;;;;;;;;10.50;93.40;;;;;;6234257;28;19925;-79
2023/02/08 14:01:03;;;;;;;;;;;10.40;91.30;;;;;;6229857;28;19921;-80
2023/02/08 14:04:16;;;;;;;;;;;10.50;92.70;;;;;;6206415;28;19921;-80
2023/02/08 14:07:22;;;;;;;;;;;11.00;93.10;;;;;;6204854;28;20004;-80
2023/02/08 14:10:36;;;;;;;;;;;10.90;91.10;;;;;;6203348;28;20404;-80
2023/02/08 14:13:49;;;;;;;;;;;11.00;91.60;;;;;;6206603;28;20373;-80
2023/02/08 14:17:05;;;;;;;;;;;11.30;91.80;;;;;;6195684;28;19923;-79
2023/02/08 14:20:07;;;;;;;;;;;11.40;90.50;;;;;;6209999;28;19932;-80
2023/02/08 14:23:21;;;;;;;;;;;11.40;89.50;;;;;;6199524;28;19930;-80
2023/02/08 14:26:23;;;;;;;;;;;11.40;89.80;;;;;;6199315;28;19921;-79
2023/02/08 14:29:27;;;;;;;;;;;11.20;82.80;;;;;;6234168;28;19924;-80
2023/02/08 14:32:30;;;;;;;;;;;10.70;82.80;;;;;;6249860;28;19925;-79
2023/02/08 14:35:33;;;;;;;;;;;10.60;80.20;;;;;;6243104;28;19925;-80
2023/02/08 14:38:52;;;;;;;;;;;10.40;78.20;;;;;;6224320;28;19921;-80
2023/02/08 14:41:58;;;;;;;;;;;10.50;79.00;;;;;;6230834;28;19928;-81
2023/02/08 14:45:03;;;;;;;;;;;10.80;79.70;;;;;;6228813;28;19922;-80
2023/02/08 14:48:22;;;;;;;;;;;10.80;79.30;;;;;;6230209;28;19928;-80
2023/02/08 14:51:28;;;;;;;;;;;10.90;79.00;;;;;;6218979;28;19928;-80
2023/02/08 14:54:33;;;;;;;;;;;10.80;77.10;;;;;;6230630;28;19925;-80
2023/02/08 14:57:35;;;;;;;;;;;11.00;77.50;;;;;;6230596;28;19927;-80
2023/02/08 15:00:41;;;;;;;;;;;11.00;75.50;;;;;;6222344;28;20000;-80
2023/02/08 15:03:45;;;;;;;;;;;10.60;74.70;;;;;;6221554;28;19928;-80
2023/02/08 15:07:01;;;;;;;;;;;10.50;74.40;;;;;;6227741;28;19927;-80
2023/02/08 15:10:05;;;;;;;;;;;10.40;73.60;;;;;;6226670;28;20428;-80
2023/02/08 15:13:17;;;;;;;;;;;10.20;72.00;;;;;;6227704;28;20521;-80
2023/02/08 15:16:20;;;;;;;;;;;9.90;71.90;;;;;;6229095;28;19929;-80
2023/02/08 15:19:24;;;;;;;;;;;9.80;72.00;;;;;;6230092;28;19921;-80
2023/02/08 15:22:34;;;;;;;;;;;9.70;72.00;;;;;;6228844;28;19921;-80
2023/02/08 15:25:36;;;;;;;;;;;9.60;72.00;;;;;;6228694;28;20377;-79
2023/02/08 15:28:44;;;;;;;;;;;9.40;70.70;;;;;;6230849;28;19922;-80
2023/02/08 15:31:47;;;;;;;;;;;9.20;71.10;;;;;;6246917;28;19921;-79
2023/02/08 15:34:50;;;;;;;;;;;9.10;71.10;;;;;;6252962;28;20436;-78
2023/02/08 15:37:53;;;;;;;;;;;9.10;71.10;;;;;;6255428;28;19921;-79
2023/02/08 15:41:01;;;;;;;;;;;8.90;71.00;;;;;;6252223;28;20003;-79
2023/02/08 15:44:13;;;;;;;;;;;8.50;72.10;;;;;;6227901;28;19922;-78
2023/02/08 15:47:17;;;;;;;;;;;8.10;71.30;;;;;;6229068;28;19921;-79
2023/02/08 15:50:19;;;;;;;;;;;7.90;71.80;;;;;;6226805;28;19928;-78
2023/02/08 15:53:21;;;;;;;;;;;7.50;72.60;;;;;;6224702;28;19979;-78
2023/02/08 15:56:25;;;;;;;;;;;7.10;72.10;;;;;;6227064;28;19921;-78
2023/02/08 15:59:29;;;;;;;;;;;6.70;72.50;;;;;;6216541;28;20386;-78
2023/02/08 16:02:33;;;;;;;;;;;6.30;72.90;;;;;;6226418;28;20016;-79
2023/02/08 16:05:35;;;;;;;;;;;6.00;73.30;;;;;;6226076;28;19921;-79
2023/02/08 16:08:39;;;;;;;;;;;5.80;73.70;;;;;;6232957;28;19922;-79
2023/02/08 16:11:43;;;;;;;;;;;5.60;74.10;;;;;;6228070;28;19921;-79
2023/02/08 16:14:45;;;;;;;;;;;5.40;74.50;;;;;;6226533;28;19921;-79
2023/02/08 16:17:48;;;;;;;;;;;5.30;74.80;;;;;;6226309;28;19928;-79
2023/02/08 16:20:56;;;;;;;;;;;5.10;75.10;;;;;;6225176;28;19935;-79
2023/02/08 16:23:58;;;;;;;;;;;4.90;75.20;;;;;;6227701;28;19921;-79
2023/02/08 16:27:02;;;;;;;;;;;4.80;75.70;;;;;;6228911;28;19927;-78
2023/02/08 16:30:06;;;;;;;;;;;4.70;75.90;;;;;;6232795;28;19931;-78
2023/02/08 16:33:15;;;;;;;;;;;4.60;76.10;;;;;;6227027;28;19925;-79
2023/02/08 16:36:22;;;;;;;;;;;4.60;76.50;;;;;;6230398;28;20372;-78
2023/02/08 16:39:48;;;;;;;;;;;4.40;76.70;;;;;;6227402;28;19928;-78
2023/02/08 16:43:14;;;;;;;;;;;4.30;77.00;;;;;;6223814;28;20022;-78
2023/02/08 16:46:20;;;;;;;;;;;4.20;77.30;;;;;;6226641;28;19928;-77
2023/02/08 16:49:32;;;;;;;;;;;4.10;77.50;;;;;;6226091;28;19921;-78
2023/02/08 16:52:36;;;;;;;;;;;4.00;77.90;;;;;;6226196;28;20296;-78
2023/02/08 16:55:38;;;;;;;;;;;4.00;78.40;;;;;;6227419;28;19926;-77
2023/02/08 16:58:42;;;;;;;;;;;3.90;78.60;;;;;;6225807;28;19921;-78
2023/02/08 17:01:47;;;;;;;;;;;3.80;78.90;;;;;;6225761;28;19921;-77
2023/02/08 17:04:53;;;;;;;;;;;3.80;79.00;;;;;;6224267;28;19932;-77
2023/02/08 17:07:57;;;;;;;;;;;3.70;79.50;;;;;;6229316;28;19922;-77
2023/02/08 17:11:14;;;;;;;;;;;3.60;79.80;;;;;;6228325;28;19925;-79
2023/02/08 17:14:17;;;;;;;;;;;3.60;80.10;;;;;;6222645;28;19921;-77
2023/02/08 17:17:20;;;;;;;;;;;3.50;80.50;;;;;;6214354;28;19921;-77
2023/02/08 17:20:24;;;;;;;;;;;3.50;80.80;;;;;;6226575;28;19922;-78
2023/02/08 17:23:26;;;;;;;;;;;3.50;81.50;;;;;;6222469;28;19928;-77
2023/02/08 17:26:28;;;;;;;;;;;3.40;81.10;;;;;;6224513;28;19921;-77
2023/02/08 17:29:34;;;;;;;;;;;3.30;81.30;;;;;;6227437;28;19921;-77
2023/02/08 17:32:35;;;;;;;;;;;3.30;81.60;;;;;;6231155;28;20028;-77
2023/02/08 17:35:40;;;;;;;;;;;3.20;81.90;;;;;;6226245;28;19921;-77
2023/02/08 17:38:52;;;;;;;;;;;3.10;82.10;;;;;;6224086;28;19922;-77
2023/02/08 17:41:56;;;;;;;;;;;3.00;82.30;;;;;;6226081;28;19921;-78
2023/02/08 17:45:00;;;;;;;;;;;3.00;82.80;;;;;;6224128;28;20304;-77
2023/02/08 17:48:02;;;;;;;;;;;2.90;83.00;;;;;;6227230;28;19922;-77
2023/02/08 17:51:18;;;;;;;;;;;2.80;83.10;;;;;;6224837;28;20048;-77
2023/02/08 17:54:21;;;;;;;;;;;2.70;83.20;;;;;;6223145;28;20008;-77
2023/02/08 17:57:23;;;;;;;;;;;2.70;83.40;;;;;;6221289;28;20297;-77
2023/02/08 18:00:25;;;;;;;;;;;2.50;83.40;;;;;;6233615;28;20481;-78
2023/02/08 18:03:27;;;;;;;;;;;2.50;83.70;;;;;;6230320;28;19925;-77
2023/02/08 18:06:28;;;;;;;;;;;2.40;83.80;;;;;;6223604;28;19925;-78
2023/02/08 18:09:32;;;;;;;;;;;2.40;83.90;;;;;;6225351;28;19925;-77
2023/02/08 18:12:34;;;;;;;;;;;2.30;84.00;;;;;;6224458;28;20289;-77
2023/02/08 18:15:35;;;;;;;;;;;2.20;84.30;;;;;;6223591;28;19929;-77
2023/02/08 18:18:37;;;;;;;;;;;2.20;84.50;;;;;;6226284;28;19922;-77